sensor_id;sensor_type;location;lat;lon;timestamp;P1;durP1;ratioP1;P2;durP2;ratioP2
33190;SDS011;19554;42.652;23.364;2024-03-07T00:00:07;34.22;;;23.23;;
33190;SDS011;19554;42.652;23.364;2024-03-07T00:02:41;34.38;;;24.05;;
33190;SDS011;19554;42.652;23.364;2024-03-07T00:05:07;34.47;;;23.45;;
33190;SDS011;19554;42.652;23.364;2024-03-07T00:07:33;34.75;;;22.75;;
33190;SDS011;19554;42.652;23.364;2024-03-07T00:09:59;34.88;;;23.33;;
33190;SDS011;19554;42.652;23.364;2024-03-07T00:12:25;32.42;;;22.73;;
33190;SDS011;19554;42.652;23.364;2024-03-07T00:14:52;27.17;;;20.65;;
33190;SDS011;19554;42.652;23.364;2024-03-07T00:17:17;29.13;;;20.63;;
33190;SDS011;19554;42.652;23.364;2024-03-07T00:19:44;34.30;;;21.88;;
33190;SDS011;19554;42.652;23.364;2024-03-07T00:22:10;28.88;;;19.92;;
33190;SDS011;19554;42.652;23.364;2024-03-07T00:24:35;25.60;;;19.25;;
33190;SDS011;19554;42.652;23.364;2024-03-07T00:27:02;28.42;;;18.85;;
33190;SDS011;19554;42.652;23.364;2024-03-07T00:29:28;26.88;;;19.13;;
33190;SDS011;19554;42.652;23.364;2024-03-07T00:31:54;25.25;;;18.63;;
33190;SDS011;19554;42.652;23.364;2024-03-07T00:34:19;29.52;;;20.70;;
33190;SDS011;19554;42.652;23.364;2024-03-07T00:36:46;27.75;;;20.17;;
33190;SDS011;19554;42.652;23.364;2024-03-07T00:39:11;26.55;;;18.85;;
33190;SDS011;19554;42.652;23.364;2024-03-07T00:41:41;23.73;;;18.63;;
33190;SDS011;19554;42.652;23.364;2024-03-07T00:44:07;26.95;;;18.48;;
33190;SDS011;19554;42.652;23.364;2024-03-07T00:46:36;24.00;;;17.48;;
33190;SDS011;19554;42.652;23.364;2024-03-07T00:49:02;26.05;;;18.88;;
33190;SDS011;19554;42.652;23.364;2024-03-07T00:51:28;28.17;;;18.40;;
33190;SDS011;19554;42.652;23.364;2024-03-07T00:53:53;23.15;;;17.20;;
33190;SDS011;19554;42.652;23.364;2024-03-07T00:56:19;26.15;;;18.23;;
33190;SDS011;19554;42.652;23.364;2024-03-07T00:58:47;24.77;;;17.02;;
33190;SDS011;19554;42.652;23.364;2024-03-07T01:01:13;28.08;;;18.95;;
33190;SDS011;19554;42.652;23.364;2024-03-07T01:03:40;24.60;;;17.60;;
33190;SDS011;19554;42.652;23.364;2024-03-07T01:06:06;25.00;;;17.75;;
33190;SDS011;19554;42.652;23.364;2024-03-07T01:08:33;26.92;;;19.13;;
33190;SDS011;19554;42.652;23.364;2024-03-07T01:11:00;26.67;;;18.13;;
33190;SDS011;19554;42.652;23.364;2024-03-07T01:13:25;22.95;;;17.67;;
33190;SDS011;19554;42.652;23.364;2024-03-07T01:15:51;22.92;;;18.15;;
33190;SDS011;19554;42.652;23.364;2024-03-07T01:18:16;23.95;;;16.40;;
33190;SDS011;19554;42.652;23.364;2024-03-07T01:20:42;24.98;;;18.00;;
33190;SDS011;19554;42.652;23.364;2024-03-07T01:23:07;25.25;;;18.13;;
33190;SDS011;19554;42.652;23.364;2024-03-07T01:25:33;25.02;;;18.02;;
33190;SDS011;19554;42.652;23.364;2024-03-07T01:28:00;25.70;;;17.50;;
33190;SDS011;19554;42.652;23.364;2024-03-07T01:30:26;27.42;;;18.27;;
33190;SDS011;19554;42.652;23.364;2024-03-07T01:32:53;22.90;;;17.33;;
33190;SDS011;19554;42.652;23.364;2024-03-07T01:35:19;23.83;;;18.00;;
33190;SDS011;19554;42.652;23.364;2024-03-07T01:37:45;23.85;;;18.00;;
33190;SDS011;19554;42.652;23.364;2024-03-07T01:40:10;21.95;;;16.63;;
33190;SDS011;19554;42.652;23.364;2024-03-07T01:42:36;29.27;;;18.52;;
33190;SDS011;19554;42.652;23.364;2024-03-07T01:45:02;25.38;;;17.70;;
33190;SDS011;19554;42.652;23.364;2024-03-07T01:47:28;23.20;;;16.40;;
33190;SDS011;19554;42.652;23.364;2024-03-07T01:49:53;23.83;;;17.38;;
33190;SDS011;19554;42.652;23.364;2024-03-07T01:52:19;22.30;;;16.25;;
33190;SDS011;19554;42.652;23.364;2024-03-07T01:54:47;20.08;;;15.57;;
33190;SDS011;19554;42.652;23.364;2024-03-07T01:57:13;23.48;;;16.73;;
33190;SDS011;19554;42.652;23.364;2024-03-07T01:59:42;23.90;;;15.82;;
33190;SDS011;19554;42.652;23.364;2024-03-07T02:02:08;21.27;;;15.70;;
33190;SDS011;19554;42.652;23.364;2024-03-07T02:04:34;20.13;;;14.55;;
33190;SDS011;19554;42.652;23.364;2024-03-07T02:07:00;15.68;;;12.25;;
33190;SDS011;19554;42.652;23.364;2024-03-07T02:09:25;11.35;;;8.73;;
33190;SDS011;19554;42.652;23.364;2024-03-07T02:11:51;7.72;;;5.80;;
33190;SDS011;19554;42.652;23.364;2024-03-07T02:14:18;7.70;;;5.90;;
33190;SDS011;19554;42.652;23.364;2024-03-07T02:16:44;7.72;;;5.05;;
33190;SDS011;19554;42.652;23.364;2024-03-07T02:19:13;4.22;;;3.67;;
33190;SDS011;19554;42.652;23.364;2024-03-07T02:21:40;3.05;;;2.75;;
33190;SDS011;19554;42.652;23.364;2024-03-07T02:24:06;3.22;;;2.47;;
33190;SDS011;19554;42.652;23.364;2024-03-07T02:26:31;2.70;;;2.45;;
33190;SDS011;19554;42.652;23.364;2024-03-07T02:28:57;2.95;;;2.28;;
33190;SDS011;19554;42.652;23.364;2024-03-07T02:31:22;1.92;;;1.70;;
33190;SDS011;19554;42.652;23.364;2024-03-07T02:34:00;2.00;;;1.80;;
33190;SDS011;19554;42.652;23.364;2024-03-07T02:36:27;1.88;;;1.67;;
33190;SDS011;19554;42.652;23.364;2024-03-07T02:38:52;1.63;;;1.52;;
33190;SDS011;19554;42.652;23.364;2024-03-07T02:41:18;2.40;;;2.10;;
33190;SDS011;19554;42.652;23.364;2024-03-07T02:43:43;3.45;;;1.67;;
33190;SDS011;19554;42.652;23.364;2024-03-07T02:46:09;2.05;;;1.85;;
33190;SDS011;19554;42.652;23.364;2024-03-07T02:48:36;1.73;;;1.63;;
33190;SDS011;19554;42.652;23.364;2024-03-07T02:51:05;3.05;;;2.13;;
33190;SDS011;19554;42.652;23.364;2024-03-07T02:53:33;3.60;;;2.30;;
33190;SDS011;19554;42.652;23.364;2024-03-07T02:55:59;2.25;;;1.90;;
33190;SDS011;19554;42.652;23.364;2024-03-07T02:58:24;2.60;;;1.65;;
33190;SDS011;19554;42.652;23.364;2024-03-07T03:00:59;2.28;;;1.98;;
33190;SDS011;19554;42.652;23.364;2024-03-07T03:03:25;2.28;;;1.75;;
33190;SDS011;19554;42.652;23.364;2024-03-07T03:05:51;2.10;;;1.90;;
33190;SDS011;19554;42.652;23.364;2024-03-07T03:08:17;2.13;;;1.92;;
33190;SDS011;19554;42.652;23.364;2024-03-07T03:10:43;2.67;;;2.05;;
33190;SDS011;19554;42.652;23.364;2024-03-07T03:13:09;2.60;;;1.80;;
33190;SDS011;19554;42.652;23.364;2024-03-07T03:15:35;2.72;;;1.88;;
33190;SDS011;19554;42.652;23.364;2024-03-07T03:18:00;4.63;;;2.15;;
33190;SDS011;19554;42.652;23.364;2024-03-07T03:20:26;2.13;;;1.65;;
33190;SDS011;19554;42.652;23.364;2024-03-07T03:22:58;2.05;;;1.60;;
33190;SDS011;19554;42.652;23.364;2024-03-07T03:25:25;1.90;;;1.00;;
33190;SDS011;19554;42.652;23.364;2024-03-07T03:27:51;0.68;;;0.68;;
33190;SDS011;19554;42.652;23.364;2024-03-07T03:30:17;1.17;;;1.00;;
33190;SDS011;19554;42.652;23.364;2024-03-07T03:32:46;2.88;;;1.58;;
33190;SDS011;19554;42.652;23.364;2024-03-07T03:35:14;1.42;;;1.33;;
33190;SDS011;19554;42.652;23.364;2024-03-07T03:37:44;1.35;;;1.17;;
33190;SDS011;19554;42.652;23.364;2024-03-07T03:40:09;2.53;;;1.50;;
33190;SDS011;19554;42.652;23.364;2024-03-07T03:42:39;2.53;;;1.67;;
33190;SDS011;19554;42.652;23.364;2024-03-07T03:45:06;1.55;;;1.45;;
33190;SDS011;19554;42.652;23.364;2024-03-07T03:47:36;2.38;;;1.50;;
33190;SDS011;19554;42.652;23.364;2024-03-07T03:50:06;2.78;;;1.67;;
33190;SDS011;19554;42.652;23.364;2024-03-07T03:52:33;5.38;;;2.20;;
33190;SDS011;19554;42.652;23.364;2024-03-07T03:55:02;1.88;;;1.38;;
33190;SDS011;19554;42.652;23.364;2024-03-07T03:57:30;0.98;;;0.88;;
33190;SDS011;19554;42.652;23.364;2024-03-07T03:59:56;1.17;;;1.08;;
33190;SDS011;19554;42.652;23.364;2024-03-07T04:02:22;1.10;;;0.57;;
33190;SDS011;19554;42.652;23.364;2024-03-07T04:04:49;3.55;;;1.38;;
33190;SDS011;19554;42.652;23.364;2024-03-07T04:07:15;1.17;;;0.80;;
33190;SDS011;19554;42.652;23.364;2024-03-07T04:09:41;3.72;;;0.85;;
33190;SDS011;19554;42.652;23.364;2024-03-07T04:12:07;0.60;;;0.60;;
33190;SDS011;19554;42.652;23.364;2024-03-07T04:14:36;0.50;;;0.50;;
33190;SDS011;19554;42.652;23.364;2024-03-07T04:17:09;0.73;;;0.73;;
33190;SDS011;19554;42.652;23.364;2024-03-07T04:19:39;0.87;;;0.87;;
33190;SDS011;19554;42.652;23.364;2024-03-07T04:22:06;0.73;;;0.73;;
33190;SDS011;19554;42.652;23.364;2024-03-07T04:24:33;0.80;;;0.80;;
33190;SDS011;19554;42.652;23.364;2024-03-07T04:27:01;1.73;;;0.93;;
33190;SDS011;19554;42.652;23.364;2024-03-07T04:29:32;0.70;;;0.70;;
33190;SDS011;19554;42.652;23.364;2024-03-07T04:31:59;1.10;;;1.00;;
33190;SDS011;19554;42.652;23.364;2024-03-07T04:34:26;0.90;;;0.90;;
33190;SDS011;19554;42.652;23.364;2024-03-07T04:36:53;0.90;;;0.90;;
33190;SDS011;19554;42.652;23.364;2024-03-07T04:39:18;0.93;;;0.90;;
33190;SDS011;19554;42.652;23.364;2024-03-07T04:41:57;1.13;;;1.02;;
33190;SDS011;19554;42.652;23.364;2024-03-07T04:44:32;1.67;;;1.33;;
33190;SDS011;19554;42.652;23.364;2024-03-07T04:47:00;2.10;;;1.42;;
33190;SDS011;19554;42.652;23.364;2024-03-07T04:49:27;1.20;;;1.10;;
33190;SDS011;19554;42.652;23.364;2024-03-07T04:51:56;1.48;;;1.17;;
33190;SDS011;19554;42.652;23.364;2024-03-07T04:54:23;1.73;;;1.63;;
33190;SDS011;19554;42.652;23.364;2024-03-07T04:56:50;2.17;;;1.50;;
33190;SDS011;19554;42.652;23.364;2024-03-07T04:59:16;2.17;;;1.58;;
33190;SDS011;19554;42.652;23.364;2024-03-07T05:01:43;1.60;;;1.35;;
33190;SDS011;19554;42.652;23.364;2024-03-07T05:04:09;2.10;;;1.60;;
33190;SDS011;19554;42.652;23.364;2024-03-07T05:06:37;2.30;;;1.92;;
33190;SDS011;19554;42.652;23.364;2024-03-07T05:09:03;1.65;;;1.55;;
33190;SDS011;19554;42.652;23.364;2024-03-07T05:11:29;3.15;;;1.83;;
33190;SDS011;19554;42.652;23.364;2024-03-07T05:13:55;1.75;;;1.65;;
33190;SDS011;19554;42.652;23.364;2024-03-07T05:16:23;3.22;;;1.88;;
33190;SDS011;19554;42.652;23.364;2024-03-07T05:18:49;3.63;;;1.75;;
33190;SDS011;19554;42.652;23.364;2024-03-07T05:21:15;1.70;;;1.60;;
33190;SDS011;19554;42.652;23.364;2024-03-07T05:24:00;1.67;;;1.50;;
33190;SDS011;19554;42.652;23.364;2024-03-07T05:26:27;1.40;;;1.30;;
33190;SDS011;19554;42.652;23.364;2024-03-07T05:28:53;2.35;;;1.80;;
33190;SDS011;19554;42.652;23.364;2024-03-07T05:31:21;3.20;;;2.08;;
33190;SDS011;19554;42.652;23.364;2024-03-07T05:33:47;5.47;;;2.58;;
33190;SDS011;19554;42.652;23.364;2024-03-07T05:36:13;2.85;;;1.80;;
33190;SDS011;19554;42.652;23.364;2024-03-07T05:38:40;2.03;;;1.50;;
33190;SDS011;19554;42.652;23.364;2024-03-07T05:41:09;1.73;;;1.52;;
33190;SDS011;19554;42.652;23.364;2024-03-07T05:43:36;2.15;;;1.70;;
33190;SDS011;19554;42.652;23.364;2024-03-07T05:46:02;3.42;;;1.25;;
33190;SDS011;19554;42.652;23.364;2024-03-07T05:48:28;1.65;;;1.55;;
33190;SDS011;19554;42.652;23.364;2024-03-07T05:50:53;1.55;;;1.45;;
33190;SDS011;19554;42.652;23.364;2024-03-07T05:53:19;1.65;;;1.48;;
33190;SDS011;19554;42.652;23.364;2024-03-07T05:55:44;2.70;;;1.67;;
33190;SDS011;19554;42.652;23.364;2024-03-07T05:58:10;3.25;;;1.92;;
33190;SDS011;19554;42.652;23.364;2024-03-07T06:00:36;3.05;;;1.73;;
33190;SDS011;19554;42.652;23.364;2024-03-07T06:03:04;2.83;;;1.92;;
33190;SDS011;19554;42.652;23.364;2024-03-07T06:05:30;3.15;;;2.42;;
33190;SDS011;19554;42.652;23.364;2024-03-07T06:07:56;2.55;;;1.90;;
33190;SDS011;19554;42.652;23.364;2024-03-07T06:10:22;2.40;;;2.15;;
33190;SDS011;19554;42.652;23.364;2024-03-07T06:12:51;3.85;;;2.25;;
33190;SDS011;19554;42.652;23.364;2024-03-07T06:15:18;5.03;;;3.33;;
33190;SDS011;19554;42.652;23.364;2024-03-07T06:17:43;3.83;;;3.25;;
33190;SDS011;19554;42.652;23.364;2024-03-07T06:20:11;4.55;;;3.30;;
33190;SDS011;19554;42.652;23.364;2024-03-07T06:22:51;6.15;;;4.03;;
33190;SDS011;19554;42.652;23.364;2024-03-07T06:25:17;5.00;;;3.90;;
33190;SDS011;19554;42.652;23.364;2024-03-07T06:27:59;4.15;;;3.38;;
33190;SDS011;19554;42.652;23.364;2024-03-07T06:30:33;4.25;;;3.25;;
33190;SDS011;19554;42.652;23.364;2024-03-07T06:32:59;5.95;;;4.50;;
33190;SDS011;19554;42.652;23.364;2024-03-07T06:35:24;5.68;;;4.28;;
33190;SDS011;19554;42.652;23.364;2024-03-07T06:37:50;6.85;;;4.80;;
33190;SDS011;19554;42.652;23.364;2024-03-07T06:40:15;7.40;;;5.00;;
33190;SDS011;19554;42.652;23.364;2024-03-07T06:42:46;5.63;;;3.72;;
33190;SDS011;19554;42.652;23.364;2024-03-07T06:45:11;5.63;;;4.32;;
33190;SDS011;19554;42.652;23.364;2024-03-07T06:47:37;4.95;;;4.00;;
33190;SDS011;19554;42.652;23.364;2024-03-07T06:50:03;4.50;;;3.70;;
33190;SDS011;19554;42.652;23.364;2024-03-07T06:52:29;5.55;;;4.00;;
33190;SDS011;19554;42.652;23.364;2024-03-07T06:54:54;5.57;;;4.72;;
33190;SDS011;19554;42.652;23.364;2024-03-07T06:57:20;5.00;;;4.20;;
33190;SDS011;19554;42.652;23.364;2024-03-07T06:59:46;5.50;;;4.20;;
33190;SDS011;19554;42.652;23.364;2024-03-07T07:02:11;5.57;;;4.20;;
33190;SDS011;19554;42.652;23.364;2024-03-07T07:04:37;3.72;;;3.38;;
33190;SDS011;19554;42.652;23.364;2024-03-07T07:07:12;5.03;;;3.45;;
33190;SDS011;19554;42.652;23.364;2024-03-07T07:09:39;6.97;;;3.88;;
33190;SDS011;19554;42.652;23.364;2024-03-07T07:12:08;3.70;;;3.00;;
33190;SDS011;19554;42.652;23.364;2024-03-07T07:14:34;4.53;;;3.33;;
33190;SDS011;19554;42.652;23.364;2024-03-07T07:17:01;4.03;;;3.08;;
33190;SDS011;19554;42.652;23.364;2024-03-07T07:19:26;3.30;;;2.75;;
33190;SDS011;19554;42.652;23.364;2024-03-07T07:21:52;5.47;;;2.70;;
33190;SDS011;19554;42.652;23.364;2024-03-07T07:24:22;2.95;;;2.58;;
33190;SDS011;19554;42.652;23.364;2024-03-07T07:26:48;3.00;;;2.70;;
33190;SDS011;19554;42.652;23.364;2024-03-07T07:29:17;3.30;;;2.60;;
33190;SDS011;19554;42.652;23.364;2024-03-07T07:31:43;5.18;;;2.72;;
33190;SDS011;19554;42.652;23.364;2024-03-07T07:34:10;3.83;;;3.10;;
33190;SDS011;19554;42.652;23.364;2024-03-07T07:36:36;4.20;;;3.10;;
33190;SDS011;19554;42.652;23.364;2024-03-07T07:39:01;4.18;;;3.22;;
33190;SDS011;19554;42.652;23.364;2024-03-07T07:41:28;4.38;;;3.20;;
33190;SDS011;19554;42.652;23.364;2024-03-07T07:43:53;7.35;;;4.38;;
33190;SDS011;19554;42.652;23.364;2024-03-07T07:46:19;6.68;;;3.80;;
33190;SDS011;19554;42.652;23.364;2024-03-07T07:48:45;4.95;;;4.07;;
33190;SDS011;19554;42.652;23.364;2024-03-07T07:51:10;7.20;;;4.18;;
33190;SDS011;19554;42.652;23.364;2024-03-07T07:53:36;5.95;;;4.13;;
33190;SDS011;19554;42.652;23.364;2024-03-07T07:56:03;6.47;;;4.50;;
33190;SDS011;19554;42.652;23.364;2024-03-07T07:58:29;7.55;;;4.40;;
33190;SDS011;19554;42.652;23.364;2024-03-07T08:00:55;5.53;;;4.35;;
33190;SDS011;19554;42.652;23.364;2024-03-07T08:03:21;8.43;;;5.05;;
33190;SDS011;19554;42.652;23.364;2024-03-07T08:05:47;6.60;;;4.57;;
33190;SDS011;19554;42.652;23.364;2024-03-07T08:08:12;8.43;;;4.95;;
33190;SDS011;19554;42.652;23.364;2024-03-07T08:10:41;8.48;;;5.05;;
33190;SDS011;19554;42.652;23.364;2024-03-07T08:13:07;14.10;;;6.72;;
33190;SDS011;19554;42.652;23.364;2024-03-07T08:15:38;6.57;;;5.05;;
33190;SDS011;19554;42.652;23.364;2024-03-07T08:18:04;7.03;;;4.30;;
33190;SDS011;19554;42.652;23.364;2024-03-07T08:20:33;8.43;;;4.97;;
33190;SDS011;19554;42.652;23.364;2024-03-07T08:22:59;8.57;;;5.10;;
33190;SDS011;19554;42.652;23.364;2024-03-07T08:25:26;7.40;;;5.32;;
33190;SDS011;19554;42.652;23.364;2024-03-07T08:27:54;7.22;;;4.75;;
33190;SDS011;19554;42.652;23.364;2024-03-07T08:30:21;7.80;;;5.32;;
33190;SDS011;19554;42.652;23.364;2024-03-07T08:32:51;18.25;;;7.47;;
33190;SDS011;19554;42.652;23.364;2024-03-07T08:35:17;8.98;;;6.38;;
33190;SDS011;19554;42.652;23.364;2024-03-07T08:37:44;7.80;;;5.50;;
33190;SDS011;19554;42.652;23.364;2024-03-07T08:40:11;8.50;;;5.70;;
33190;SDS011;19554;42.652;23.364;2024-03-07T08:42:44;9.27;;;5.47;;
33190;SDS011;19554;42.652;23.364;2024-03-07T08:45:11;8.40;;;4.43;;
33190;SDS011;19554;42.652;23.364;2024-03-07T08:50:07;6.20;;;4.40;;
33190;SDS011;19554;42.652;23.364;2024-03-07T08:52:33;5.55;;;3.88;;
33190;SDS011;19554;42.652;23.364;2024-03-07T08:55:04;5.65;;;3.92;;
33190;SDS011;19554;42.652;23.364;2024-03-07T08:57:31;6.00;;;3.75;;
33190;SDS011;19554;42.652;23.364;2024-03-07T08:59:57;5.97;;;4.05;;
33190;SDS011;19554;42.652;23.364;2024-03-07T09:02:25;9.32;;;3.65;;
33190;SDS011;19554;42.652;23.364;2024-03-07T09:04:50;3.63;;;3.17;;
33190;SDS011;19554;42.652;23.364;2024-03-07T09:07:15;6.00;;;3.80;;
33190;SDS011;19554;42.652;23.364;2024-03-07T09:09:42;5.63;;;3.42;;
33190;SDS011;19554;42.652;23.364;2024-03-07T09:12:10;4.70;;;3.55;;
33190;SDS011;19554;42.652;23.364;2024-03-07T09:14:36;6.05;;;3.30;;
33190;SDS011;19554;42.652;23.364;2024-03-07T09:17:02;4.68;;;3.60;;
33190;SDS011;19554;42.652;23.364;2024-03-07T09:19:29;4.88;;;3.83;;
33190;SDS011;19554;42.652;23.364;2024-03-07T09:21:56;6.63;;;3.97;;
33190;SDS011;19554;42.652;23.364;2024-03-07T09:24:21;7.05;;;3.97;;
33190;SDS011;19554;42.652;23.364;2024-03-07T09:26:50;6.75;;;4.10;;
33190;SDS011;19554;42.652;23.364;2024-03-07T09:29:16;8.07;;;5.00;;
33190;SDS011;19554;42.652;23.364;2024-03-07T09:31:43;6.40;;;4.15;;
33190;SDS011;19554;42.652;23.364;2024-03-07T09:34:10;9.38;;;4.43;;
33190;SDS011;19554;42.652;23.364;2024-03-07T09:36:37;4.10;;;3.70;;
33190;SDS011;19554;42.652;23.364;2024-03-07T09:39:04;7.72;;;4.05;;
33190;SDS011;19554;42.652;23.364;2024-03-07T09:41:29;7.38;;;4.20;;
33190;SDS011;19554;42.652;23.364;2024-03-07T09:43:55;5.22;;;4.03;;
33190;SDS011;19554;42.652;23.364;2024-03-07T09:46:22;5.60;;;4.07;;
33190;SDS011;19554;42.652;23.364;2024-03-07T09:48:49;7.82;;;4.60;;
33190;SDS011;19554;42.652;23.364;2024-03-07T09:51:19;5.38;;;3.83;;
33190;SDS011;19554;42.652;23.364;2024-03-07T09:53:49;8.07;;;4.40;;
33190;SDS011;19554;42.652;23.364;2024-03-07T09:56:20;6.60;;;4.53;;
33190;SDS011;19554;42.652;23.364;2024-03-07T09:58:49;12.55;;;4.72;;
33190;SDS011;19554;42.652;23.364;2024-03-07T10:01:22;8.45;;;4.45;;
33190;SDS011;19554;42.652;23.364;2024-03-07T10:03:52;8.55;;;4.50;;
33190;SDS011;19554;42.652;23.364;2024-03-07T10:06:23;4.70;;;4.20;;
33190;SDS011;19554;42.652;23.364;2024-03-07T10:08:49;5.63;;;4.53;;
33190;SDS011;19554;42.652;23.364;2024-03-07T10:11:16;5.75;;;4.78;;
33190;SDS011;19554;42.652;23.364;2024-03-07T10:13:41;8.40;;;5.10;;
33190;SDS011;19554;42.652;23.364;2024-03-07T10:16:07;8.73;;;4.38;;
33190;SDS011;19554;42.652;23.364;2024-03-07T10:18:33;6.85;;;4.45;;
33190;SDS011;19554;42.652;23.364;2024-03-07T10:21:07;7.97;;;4.90;;
33190;SDS011;19554;42.652;23.364;2024-03-07T10:23:32;7.45;;;5.30;;
33190;SDS011;19554;42.652;23.364;2024-03-07T10:26:01;8.45;;;4.43;;
33190;SDS011;19554;42.652;23.364;2024-03-07T10:28:29;9.35;;;4.15;;
33190;SDS011;19554;42.652;23.364;2024-03-07T10:30:56;10.63;;;4.70;;
33190;SDS011;19554;42.652;23.364;2024-03-07T10:33:21;6.88;;;4.25;;
33190;SDS011;19554;42.652;23.364;2024-03-07T10:35:53;7.53;;;4.35;;
33190;SDS011;19554;42.652;23.364;2024-03-07T10:38:18;11.57;;;5.75;;
33190;SDS011;19554;42.652;23.364;2024-03-07T10:40:46;5.65;;;4.50;;
33190;SDS011;19554;42.652;23.364;2024-03-07T10:43:13;6.38;;;4.35;;
33190;SDS011;19554;42.652;23.364;2024-03-07T10:45:46;8.60;;;4.80;;
33190;SDS011;19554;42.652;23.364;2024-03-07T10:48:12;8.55;;;4.30;;
33190;SDS011;19554;42.652;23.364;2024-03-07T10:55:34;4.93;;;3.00;;
33190;SDS011;19554;42.652;23.364;2024-03-07T11:00:58;6.32;;;3.40;;
33190;SDS011;19554;42.652;23.364;2024-03-07T11:03:29;6.07;;;3.88;;
33190;SDS011;19554;42.652;23.364;2024-03-07T11:05:57;6.57;;;3.45;;
33190;SDS011;19554;42.652;23.364;2024-03-07T11:08:25;4.53;;;3.40;;
33190;SDS011;19554;42.652;23.364;2024-03-07T11:10:52;4.90;;;3.20;;
33190;SDS011;19554;42.652;23.364;2024-03-07T11:13:18;4.45;;;3.45;;
33190;SDS011;19554;42.652;23.364;2024-03-07T11:15:44;5.30;;;3.83;;
33190;SDS011;19554;42.652;23.364;2024-03-07T11:18:12;7.35;;;3.92;;
33190;SDS011;19554;42.652;23.364;2024-03-07T11:20:38;5.80;;;3.55;;
33190;SDS011;19554;42.652;23.364;2024-03-07T11:25:53;8.80;;;4.40;;
33190;SDS011;19554;42.652;23.364;2024-03-07T11:28:19;6.30;;;4.95;;
33190;SDS011;19554;42.652;23.364;2024-03-07T11:30:53;8.43;;;5.13;;
33190;SDS011;19554;42.652;23.364;2024-03-07T11:33:18;5.93;;;5.00;;
33190;SDS011;19554;42.652;23.364;2024-03-07T11:35:48;7.25;;;5.40;;
33190;SDS011;19554;42.652;23.364;2024-03-07T11:38:14;10.10;;;5.35;;
33190;SDS011;19554;42.652;23.364;2024-03-07T11:43:05;7.32;;;5.90;;
33190;SDS011;19554;42.652;23.364;2024-03-07T11:45:31;7.18;;;5.63;;
33190;SDS011;19554;42.652;23.364;2024-03-07T11:48:06;7.95;;;5.07;;
33190;SDS011;19554;42.652;23.364;2024-03-07T11:50:35;7.35;;;5.10;;
33190;SDS011;19554;42.652;23.364;2024-03-07T11:53:02;7.35;;;5.03;;
33190;SDS011;19554;42.652;23.364;2024-03-07T11:55:31;7.78;;;5.57;;
33190;SDS011;19554;42.652;23.364;2024-03-07T11:58:07;8.07;;;5.18;;
33190;SDS011;19554;42.652;23.364;2024-03-07T12:00:38;8.80;;;5.60;;
33190;SDS011;19554;42.652;23.364;2024-03-07T12:03:08;6.65;;;4.57;;
33190;SDS011;19554;42.652;23.364;2024-03-07T12:05:38;10.82;;;5.03;;
33190;SDS011;19554;42.652;23.364;2024-03-07T12:08:04;6.78;;;5.00;;
33190;SDS011;19554;42.652;23.364;2024-03-07T12:10:30;9.45;;;4.90;;
33190;SDS011;19554;42.652;23.364;2024-03-07T12:12:56;6.22;;;4.25;;
33190;SDS011;19554;42.652;23.364;2024-03-07T12:15:22;7.63;;;4.63;;
33190;SDS011;19554;42.652;23.364;2024-03-07T12:17:49;15.10;;;4.80;;
33190;SDS011;19554;42.652;23.364;2024-03-07T12:20:16;12.07;;;4.53;;
33190;SDS011;19554;42.652;23.364;2024-03-07T12:22:56;9.88;;;4.50;;
33190;SDS011;19554;42.652;23.364;2024-03-07T12:25:22;11.80;;;4.20;;
33190;SDS011;19554;42.652;23.364;2024-03-07T12:30:47;7.00;;;3.63;;
33190;SDS011;19554;42.652;23.364;2024-03-07T12:33:17;7.05;;;4.47;;
33190;SDS011;19554;42.652;23.364;2024-03-07T12:35:49;6.90;;;4.32;;
33190;SDS011;19554;42.652;23.364;2024-03-07T12:38:17;6.43;;;3.63;;
33190;SDS011;19554;42.652;23.364;2024-03-07T12:40:43;6.22;;;4.45;;
33190;SDS011;19554;42.652;23.364;2024-03-07T12:43:20;7.18;;;5.38;;
33190;SDS011;19554;42.652;23.364;2024-03-07T12:45:52;8.05;;;5.30;;
33190;SDS011;19554;42.652;23.364;2024-03-07T12:48:20;7.10;;;5.28;;
33190;SDS011;19554;42.652;23.364;2024-03-07T12:50:49;12.98;;;7.47;;
33190;SDS011;19554;42.652;23.364;2024-03-07T12:53:21;10.77;;;6.63;;
33190;SDS011;19554;42.652;23.364;2024-03-07T12:55:47;10.68;;;6.82;;
33190;SDS011;19554;42.652;23.364;2024-03-07T12:58:13;8.43;;;6.20;;
33190;SDS011;19554;42.652;23.364;2024-03-07T13:00:39;10.65;;;6.65;;
33190;SDS011;19554;42.652;23.364;2024-03-07T13:03:08;10.32;;;6.75;;
33190;SDS011;19554;42.652;23.364;2024-03-07T13:05:40;13.75;;;7.75;;
33190;SDS011;19554;42.652;23.364;2024-03-07T13:08:07;12.48;;;7.82;;
33190;SDS011;19554;42.652;23.364;2024-03-07T13:10:37;10.73;;;7.25;;
33190;SDS011;19554;42.652;23.364;2024-03-07T13:13:07;11.10;;;7.32;;
33190;SDS011;19554;42.652;23.364;2024-03-07T13:15:34;12.10;;;7.07;;
33190;SDS011;19554;42.652;23.364;2024-03-07T13:18:02;12.88;;;7.72;;
33190;SDS011;19554;42.652;23.364;2024-03-07T13:20:30;13.90;;;7.72;;
33190;SDS011;19554;42.652;23.364;2024-03-07T13:22:55;14.50;;;6.63;;
33190;SDS011;19554;42.652;23.364;2024-03-07T13:25:25;10.10;;;6.93;;
33190;SDS011;19554;42.652;23.364;2024-03-07T13:27:52;9.32;;;5.90;;
33190;SDS011;19554;42.652;23.364;2024-03-07T13:30:20;13.82;;;7.18;;
33190;SDS011;19554;42.652;23.364;2024-03-07T13:32:55;11.38;;;7.18;;
33190;SDS011;19554;42.652;23.364;2024-03-07T13:35:22;8.70;;;7.32;;
33190;SDS011;19554;42.652;23.364;2024-03-07T13:37:50;10.20;;;6.90;;
33190;SDS011;19554;42.652;23.364;2024-03-07T13:40:16;11.95;;;6.35;;
33190;SDS011;19554;42.652;23.364;2024-03-07T13:42:48;12.43;;;7.07;;
33190;SDS011;19554;42.652;23.364;2024-03-07T13:45:17;9.35;;;7.00;;
33190;SDS011;19554;42.652;23.364;2024-03-07T13:48:05;10.23;;;6.90;;
33190;SDS011;19554;42.652;23.364;2024-03-07T13:50:31;12.30;;;6.47;;
33190;SDS011;19554;42.652;23.364;2024-03-07T13:52:59;8.50;;;6.35;;
33190;SDS011;19554;42.652;23.364;2024-03-07T14:12:32;12.18;;;5.20;;
33190;SDS011;19554;42.652;23.364;2024-03-07T14:20:50;9.98;;;7.00;;
33190;SDS011;19554;42.652;23.364;2024-03-07T14:31:42;11.77;;;7.07;;
33190;SDS011;19554;42.652;23.364;2024-03-07T14:34:18;13.20;;;7.55;;
33190;SDS011;19554;42.652;23.364;2024-03-07T14:36:47;11.27;;;7.05;;
33190;SDS011;19554;42.652;23.364;2024-03-07T14:39:18;10.55;;;7.43;;
33190;SDS011;19554;42.652;23.364;2024-03-07T14:44:16;17.02;;;9.48;;
33190;SDS011;19554;42.652;23.364;2024-03-07T14:46:43;14.25;;;9.73;;
33190;SDS011;19554;42.652;23.364;2024-03-07T14:49:13;12.10;;;7.72;;
33190;SDS011;19554;42.652;23.364;2024-03-07T14:51:41;14.38;;;9.07;;
33190;SDS011;19554;42.652;23.364;2024-03-07T14:54:07;14.65;;;8.15;;
33190;SDS011;19554;42.652;23.364;2024-03-07T14:56:34;12.93;;;8.65;;
33190;SDS011;19554;42.652;23.364;2024-03-07T14:58:59;13.10;;;8.88;;
33190;SDS011;19554;42.652;23.364;2024-03-07T15:01:28;13.93;;;8.90;;
33190;SDS011;19554;42.652;23.364;2024-03-07T15:03:56;16.45;;;10.20;;
33190;SDS011;19554;42.652;23.364;2024-03-07T15:06:22;16.55;;;11.40;;
33190;SDS011;19554;42.652;23.364;2024-03-07T15:08:48;19.13;;;11.73;;
33190;SDS011;19554;42.652;23.364;2024-03-07T15:11:19;17.35;;;10.63;;
33190;SDS011;19554;42.652;23.364;2024-03-07T15:13:49;17.25;;;11.23;;
33190;SDS011;19554;42.652;23.364;2024-03-07T15:16:14;16.30;;;9.82;;
33190;SDS011;19554;42.652;23.364;2024-03-07T15:18:40;15.45;;;10.15;;
33190;SDS011;19554;42.652;23.364;2024-03-07T15:21:08;12.32;;;9.60;;